Mokshan, Russia
Current Conditions -  °F | °C
As of 4:30 PM on Saturday 27 Dec 2014 (Local Time) from UWSS Reporting Station
Clear Clear  
Wind Chill:   Ceiling: Unl
Heat Index:   Visibility: 6mi
Dew Point:   Wind: 2mph
Humidity: 85%   Direction: NA
Pressure: 30.27"   Gusts: NA
Location:  53.44°N, 44.62°E
Report Text: UWSS 271330Z VRB01MPS CAVOK M13/M15 Q1025 30820348 NOSIG RMKQFE755
Loading
Personal Weather Stations






























Interactive Weather Map New forecast layout! Learn more

10-Day Weather Forecast

Advertisements
Track Severe Weather on mobile